createdAt,value
2017-08-03T00:00:29.316Z,19.00
2017-08-03T00:02:59.096Z,18.90
2017-08-03T00:05:27.578Z,18.90
2017-08-03T00:07:55.978Z,18.90
2017-08-03T00:10:25.503Z,18.80
2017-08-03T00:12:53.963Z,18.70
2017-08-03T00:15:22.436Z,18.80
2017-08-03T00:17:51.104Z,19.10
2017-08-03T00:20:19.564Z,19.20
2017-08-03T00:22:47.995Z,19.10
2017-08-03T00:25:16.438Z,19.10
2017-08-03T00:27:44.886Z,19.10
2017-08-03T00:30:13.340Z,19.20
2017-08-03T00:32:41.731Z,19.10
2017-08-03T00:35:10.151Z,19.20
2017-08-03T00:37:38.553Z,19.20
2017-08-03T00:40:07.967Z,19.30
2017-08-03T00:42:36.100Z,19.30
2017-08-03T00:45:04.271Z,19.40
2017-08-03T00:47:32.796Z,19.30
2017-08-03T00:50:01.263Z,19.40
2017-08-03T00:52:29.855Z,19.30
2017-08-03T00:54:58.663Z,19.30
2017-08-03T00:57:27.526Z,19.20
2017-08-03T00:59:56.156Z,19.10
2017-08-03T01:02:24.609Z,19.00
2017-08-03T01:04:55.159Z,19.00
2017-08-03T01:07:23.706Z,19.00
2017-08-03T01:09:52.200Z,19.00
2017-08-03T01:12:20.658Z,19.20
2017-08-03T01:14:49.095Z,19.20
2017-08-03T01:17:17.694Z,19.10
2017-08-03T01:19:46.196Z,19.00
2017-08-03T01:22:14.646Z,19.10
2017-08-03T01:24:43.054Z,19.10
2017-08-03T01:27:11.459Z,19.30
2017-08-03T01:29:39.955Z,19.30
2017-08-03T01:32:08.356Z,19.40
2017-08-03T01:34:36.803Z,19.40
2017-08-03T01:37:05.304Z,19.50
2017-08-03T01:39:34.440Z,19.50
2017-08-03T01:42:02.859Z,19.30
2017-08-03T01:44:31.463Z,19.30
2017-08-03T01:47:11.138Z,19.40
2017-08-03T01:49:38.911Z,19.50
2017-08-03T01:52:07.446Z,19.50
2017-08-03T01:54:36.000Z,19.60
2017-08-03T01:57:04.510Z,19.60
2017-08-03T01:59:34.088Z,19.50
2017-08-03T02:02:04.389Z,19.50
2017-08-03T02:04:32.834Z,19.50
2017-08-03T02:07:00.747Z,19.50
2017-08-03T02:09:34.017Z,19.70
2017-08-03T02:12:02.615Z,19.80
2017-08-03T02:14:31.152Z,19.80
2017-08-03T02:16:59.701Z,19.80
2017-08-03T02:19:31.734Z,19.90
2017-08-03T02:22:01.287Z,20.00
2017-08-03T02:24:29.980Z,19.90
2017-08-03T02:26:59.535Z,20.00
2017-08-03T02:29:32.808Z,20.00
2017-08-03T02:32:01.407Z,20.00
2017-08-03T02:34:31.774Z,20.00
2017-08-03T02:37:00.336Z,20.10
2017-08-03T02:39:35.724Z,20.20
2017-08-03T02:42:04.167Z,20.20
2017-08-03T02:44:33.639Z,20.20
2017-08-03T02:47:03.316Z,20.20
2017-08-03T02:49:31.872Z,20.30
2017-08-03T02:52:01.484Z,20.30
2017-08-03T02:54:30.631Z,20.30
2017-08-03T02:56:59.237Z,20.40
2017-08-03T02:59:27.811Z,20.40
2017-08-03T03:01:56.139Z,20.40
2017-08-03T03:04:24.723Z,20.20
2017-08-03T03:06:57.094Z,20.30
2017-08-03T03:09:25.661Z,20.20
2017-08-03T03:11:54.231Z,20.20
2017-08-03T03:14:22.740Z,20.20
2017-08-03T03:16:51.207Z,20.20
2017-08-03T03:19:19.689Z,20.20
2017-08-03T03:21:48.218Z,20.20
2017-08-03T03:24:16.657Z,20.20
2017-08-03T03:26:45.247Z,20.30
2017-08-03T03:29:13.856Z,20.20
2017-08-03T03:31:42.404Z,20.30
2017-08-03T03:34:10.954Z,20.30
2017-08-03T03:36:39.381Z,20.30
2017-08-03T03:39:07.804Z,20.30
2017-08-03T03:41:36.233Z,20.30
2017-08-03T03:44:05.318Z,20.30
2017-08-03T03:46:33.870Z,20.40
2017-08-03T03:49:02.364Z,20.40
2017-08-03T03:51:30.964Z,20.40
2017-08-03T03:54:00.820Z,20.40
2017-08-03T03:56:30.838Z,20.40
2017-08-03T03:59:00.716Z,20.30
2017-08-03T04:01:29.464Z,20.30
2017-08-03T04:03:57.962Z,20.30
2017-08-03T04:06:26.547Z,20.20
2017-08-03T04:09:02.255Z,20.20
2017-08-03T04:11:31.123Z,20.20
2017-08-03T04:13:59.864Z,20.20
2017-08-03T04:16:28.579Z,20.20
2017-08-03T04:18:57.293Z,20.20
2017-08-03T04:21:26.115Z,20.20
2017-08-03T04:23:54.669Z,20.10
2017-08-03T04:26:23.228Z,20.00
2017-08-03T04:28:51.693Z,20.00
2017-08-03T04:31:20.162Z,20.00
2017-08-03T04:33:48.644Z,19.90
2017-08-03T04:36:17.245Z,19.90
2017-08-03T04:38:45.783Z,19.80
2017-08-03T04:41:14.231Z,19.80
2017-08-03T04:43:42.720Z,19.80
2017-08-03T04:46:11.153Z,19.80
2017-08-03T04:48:39.614Z,19.80
2017-08-03T04:51:08.043Z,19.80
2017-08-03T04:53:36.462Z,19.80
2017-08-03T04:56:04.862Z,19.80
2017-08-03T04:58:33.257Z,19.80
2017-08-03T05:01:01.404Z,19.80
2017-08-03T05:03:29.880Z,19.70
2017-08-03T05:05:58.305Z,19.70
2017-08-03T05:08:26.865Z,19.70
2017-08-03T05:10:57.123Z,19.80
2017-08-03T05:13:25.607Z,19.70
2017-08-03T05:15:54.124Z,19.70
2017-08-03T05:18:25.517Z,19.70
2017-08-03T05:20:55.819Z,19.70
2017-08-03T05:23:25.282Z,19.70
2017-08-03T05:25:53.823Z,19.70
2017-08-03T05:28:22.295Z,19.70
2017-08-03T05:30:50.734Z,19.70
2017-08-03T05:33:19.249Z,19.70
2017-08-03T05:35:47.675Z,19.70
2017-08-03T05:38:16.249Z,19.60
2017-08-03T05:40:44.658Z,19.70
2017-08-03T05:43:13.810Z,19.70
2017-08-03T05:45:42.257Z,19.60
2017-08-03T05:48:10.655Z,19.60
2017-08-03T05:50:39.070Z,19.70
2017-08-03T05:53:07.489Z,19.70
2017-08-03T05:55:36.974Z,19.70
2017-08-03T05:58:05.396Z,19.70
2017-08-03T06:00:33.905Z,19.70
2017-08-03T06:03:02.862Z,19.70
2017-08-03T06:05:32.821Z,19.80
2017-08-03T06:08:01.303Z,19.80
2017-08-03T06:10:29.803Z,19.80
2017-08-03T06:12:58.400Z,19.90
2017-08-03T06:15:36.704Z,19.90
2017-08-03T06:18:05.811Z,20.00
2017-08-03T06:20:37.051Z,20.10
2017-08-03T06:23:05.571Z,20.10
2017-08-03T06:25:37.828Z,20.10
2017-08-03T06:28:09.340Z,20.10
2017-08-03T06:30:38.076Z,20.10
2017-08-03T06:33:06.597Z,20.10
2017-08-03T06:35:37.463Z,20.10
2017-08-03T06:38:06.530Z,20.10
2017-08-03T06:40:38.671Z,20.10
2017-08-03T06:43:07.968Z,20.10
2017-08-03T06:45:37.735Z,20.00
2017-08-03T06:48:08.197Z,20.00
2017-08-03T06:50:37.722Z,20.10
2017-08-03T06:53:06.227Z,20.20
2017-08-03T06:55:38.466Z,20.30
2017-08-03T06:58:07.178Z,20.40
2017-08-03T07:00:35.597Z,20.50
2017-08-03T07:03:03.305Z,20.70
2017-08-03T07:05:36.724Z,20.90
2017-08-03T07:08:08.787Z,21.00
2017-08-03T07:10:38.123Z,21.00
2017-08-03T07:13:06.555Z,21.10
2017-08-03T07:15:36.456Z,21.10
2017-08-03T07:18:07.416Z,21.20
2017-08-03T07:20:37.768Z,21.20
2017-08-03T07:23:08.007Z,21.20
2017-08-03T07:25:39.528Z,21.00
2017-08-03T07:28:07.974Z,20.90
2017-08-03T07:30:36.407Z,20.70
2017-08-03T07:33:07.682Z,20.60
2017-08-03T07:35:38.050Z,20.60
2017-08-03T07:38:09.285Z,20.50
2017-08-03T07:40:37.704Z,20.50
2017-08-03T07:43:09.455Z,20.60
2017-08-03T07:45:37.910Z,20.50
2017-08-03T07:48:07.200Z,20.50
2017-08-03T07:50:35.675Z,20.60
2017-08-03T07:53:07.148Z,20.60
2017-08-03T07:55:35.605Z,20.60
2017-08-03T07:58:10.907Z,20.70
2017-08-03T08:00:39.346Z,20.80
2017-08-03T08:03:07.752Z,20.90
2017-08-03T08:05:36.198Z,20.90
2017-08-03T08:08:06.861Z,20.90
2017-08-03T08:10:35.265Z,20.90
2017-08-03T08:13:05.450Z,20.90
2017-08-03T08:15:40.646Z,20.90
2017-08-03T08:18:09.067Z,20.90
2017-08-03T08:20:37.493Z,21.00
2017-08-03T08:23:05.978Z,20.90
2017-08-03T08:25:37.837Z,20.90
2017-08-03T08:28:07.104Z,21.00
2017-08-03T08:30:36.743Z,21.10
2017-08-03T08:33:08.841Z,21.30
2017-08-03T08:35:38.094Z,21.40
2017-08-03T08:38:08.120Z,21.50
2017-08-03T08:40:36.787Z,21.50
2017-08-03T08:43:06.186Z,21.40
2017-08-03T08:45:33.969Z,21.30
2017-08-03T08:48:04.148Z,21.00
2017-08-03T08:50:33.770Z,20.80
2017-08-03T08:53:06.560Z,20.60
2017-08-03T08:55:35.139Z,20.50
2017-08-03T08:58:03.702Z,20.50
2017-08-03T09:00:36.076Z,20.40
2017-08-03T09:03:05.373Z,20.50
2017-08-03T09:05:38.231Z,20.60
2017-08-03T09:08:08.410Z,21.00
2017-08-03T09:10:36.927Z,21.50
2017-08-03T09:13:07.184Z,21.80
2017-08-03T09:15:36.591Z,22.20
2017-08-03T09:18:05.730Z,22.60
2017-08-03T09:23:19.025Z,23.30
2017-08-03T09:26:01.779Z,23.40
2017-08-03T09:28:38.376Z,23.20
2017-08-03T09:31:06.818Z,23.00
2017-08-03T09:33:38.411Z,22.90
2017-08-03T09:36:08.059Z,23.00
2017-08-03T09:38:38.620Z,23.10
2017-08-03T09:41:08.257Z,23.40
2017-08-03T09:43:38.127Z,23.80
2017-08-03T09:46:08.149Z,24.10
2017-08-03T09:48:37.991Z,24.20
2017-08-03T09:51:09.378Z,24.20
2017-08-03T09:53:38.971Z,23.90
2017-08-03T09:56:08.176Z,23.50
2017-08-03T09:58:38.651Z,23.30
2017-08-03T10:01:07.069Z,23.20
2017-08-03T10:03:39.192Z,23.10
2017-08-03T10:06:08.788Z,22.70
2017-08-03T10:08:38.669Z,22.30
2017-08-03T10:11:08.149Z,22.10
2017-08-03T10:13:38.388Z,22.00
2017-08-03T10:16:07.978Z,21.70
2017-08-03T10:18:37.660Z,21.60
2017-08-03T10:21:07.302Z,21.40
2017-08-03T10:23:38.007Z,21.30
2017-08-03T10:26:08.926Z,21.20
2017-08-03T10:28:37.452Z,21.10
2017-08-03T10:31:08.095Z,21.00
2017-08-03T10:33:37.828Z,21.00
2017-08-03T10:36:06.345Z,21.10
2017-08-03T10:38:37.930Z,21.10
2017-08-03T10:41:07.395Z,21.20
2017-08-03T10:43:35.802Z,21.30
2017-08-03T10:46:16.080Z,21.60
2017-08-03T10:48:44.010Z,21.80
2017-08-03T10:51:18.507Z,21.80
2017-08-03T10:53:48.087Z,21.70
2017-08-03T10:56:17.695Z,21.80
2017-08-03T10:58:48.172Z,22.00
2017-08-03T11:01:19.646Z,22.20
2017-08-03T11:03:49.462Z,22.30
2017-08-03T11:06:17.972Z,22.40
2017-08-03T11:08:46.430Z,22.40
2017-08-03T11:11:15.016Z,22.30
2017-08-03T11:13:43.466Z,22.30
2017-08-03T11:16:12.926Z,22.10
2017-08-03T11:18:41.371Z,22.00
2017-08-03T11:21:09.849Z,21.60
2017-08-03T11:23:41.225Z,21.30
2017-08-03T11:26:09.703Z,21.10
2017-08-03T11:28:40.009Z,20.90
2017-08-03T11:31:09.924Z,20.60
2017-08-03T11:33:39.459Z,20.70
2017-08-03T11:36:07.908Z,20.80
2017-08-03T11:38:59.272Z,20.80
2017-08-03T11:41:30.901Z,20.70
2017-08-03T11:44:00.506Z,20.60
2017-08-03T11:46:30.118Z,20.60
2017-08-03T11:48:59.621Z,20.50
2017-08-03T11:51:30.939Z,20.40
2017-08-03T11:53:59.451Z,20.30
2017-08-03T11:56:29.404Z,20.20
2017-08-03T11:58:57.826Z,20.20
2017-08-03T12:01:27.196Z,20.20
2017-08-03T12:03:55.739Z,20.20
2017-08-03T12:06:28.202Z,20.40
2017-08-03T12:09:00.497Z,20.70
2017-08-03T12:11:30.456Z,21.10
2017-08-03T12:14:01.947Z,21.50
2017-08-03T12:16:30.374Z,21.90
2017-08-03T12:18:59.575Z,22.20
2017-08-03T12:21:30.915Z,22.50
2017-08-03T12:23:59.351Z,22.80
2017-08-03T12:26:30.588Z,22.90
2017-08-03T12:29:00.657Z,22.90
2017-08-03T12:31:30.494Z,23.00
2017-08-03T12:34:00.394Z,23.20
2017-08-03T12:36:31.850Z,23.50
2017-08-03T12:41:52.794Z,24.00
2017-08-03T12:44:21.801Z,24.00
2017-08-03T12:49:49.375Z,24.10
2017-08-03T12:52:27.265Z,24.10
2017-08-03T12:55:03.531Z,24.20
2017-08-03T12:57:33.243Z,24.40
2017-08-03T13:00:01.638Z,24.70
2017-08-03T13:02:30.169Z,24.80
2017-08-03T13:05:02.622Z,24.80
2017-08-03T13:07:45.711Z,24.90
2017-08-03T13:10:18.130Z,24.90
2017-08-03T13:12:47.662Z,24.80
2017-08-03T13:15:17.863Z,25.00
2017-08-03T13:17:47.625Z,25.20
2017-08-03T13:20:19.040Z,25.30
2017-08-03T13:22:47.777Z,25.70
2017-08-03T13:25:17.337Z,25.60
2017-08-03T13:27:49.079Z,25.40
2017-08-03T13:30:17.561Z,25.40
2017-08-03T13:32:47.498Z,25.30
2017-08-03T13:35:17.270Z,25.10
2017-08-03T13:37:47.812Z,25.10
2017-08-03T13:40:17.524Z,25.10
2017-08-03T13:42:47.180Z,25.10
2017-08-03T13:45:18.939Z,25.20
2017-08-03T13:47:49.376Z,25.20
2017-08-03T13:50:17.844Z,25.00
2017-08-03T13:52:47.605Z,24.80
2017-08-03T13:55:17.204Z,24.90
2017-08-03T13:57:47.986Z,24.90
2017-08-03T14:00:17.476Z,24.70
2017-08-03T14:02:47.143Z,24.40
2017-08-03T14:05:18.689Z,24.10
2017-08-03T14:07:48.132Z,23.90
2017-08-03T14:10:21.747Z,23.90
2017-08-03T14:12:53.299Z,23.90
2017-08-03T14:15:21.779Z,23.80
2017-08-03T14:17:51.439Z,24.00
2017-08-03T14:20:23.046Z,24.10
2017-08-03T14:23:03.218Z,24.30
2017-08-03T14:25:32.862Z,24.30
2017-08-03T14:28:02.263Z,24.20
2017-08-03T14:30:32.509Z,23.90
2017-08-03T14:33:02.284Z,24.00
2017-08-03T14:35:32.635Z,24.20
2017-08-03T14:38:15.766Z,24.10
2017-08-03T14:40:47.638Z,23.80
2017-08-03T14:46:16.023Z,24.00
2017-08-03T14:48:47.120Z,24.30
2017-08-03T14:51:16.929Z,24.30
2017-08-03T14:53:48.039Z,24.40
2017-08-03T14:56:16.177Z,24.50
2017-08-03T14:58:48.357Z,24.80
2017-08-03T15:01:16.902Z,24.90
2017-08-03T15:03:48.583Z,25.00
2017-08-03T15:06:18.142Z,25.00
2017-08-03T15:08:58.387Z,24.80
2017-08-03T15:11:27.146Z,24.80
2017-08-03T15:13:58.680Z,24.70
2017-08-03T15:16:27.276Z,24.50
2017-08-03T15:18:58.636Z,24.40
2017-08-03T15:21:27.078Z,24.30
2017-08-03T15:23:58.846Z,24.40
2017-08-03T15:26:27.366Z,24.40
2017-08-03T15:28:55.769Z,24.20
2017-08-03T15:31:27.672Z,24.10
2017-08-03T15:36:57.424Z,24.20
2017-08-03T15:39:40.392Z,24.30
2017-08-03T15:42:10.032Z,24.40
2017-08-03T15:44:39.602Z,24.30
2017-08-03T15:47:11.062Z,24.30
2017-08-03T15:49:39.500Z,24.50
2017-08-03T15:52:07.930Z,24.60
2017-08-03T15:54:39.690Z,24.60
2017-08-03T15:57:09.184Z,24.50
2017-08-03T15:59:40.720Z,24.50
2017-08-03T16:02:09.190Z,24.40
2017-08-03T16:04:40.761Z,24.30
2017-08-03T16:07:09.459Z,24.30
2017-08-03T16:09:49.767Z,24.30
2017-08-03T16:12:18.194Z,24.30
2017-08-03T16:14:52.502Z,24.20
2017-08-03T16:17:22.570Z,24.30
2017-08-03T16:19:51.705Z,24.20
2017-08-03T16:22:23.097Z,24.20
2017-08-03T16:25:03.413Z,24.10
2017-08-03T16:27:32.984Z,24.10
2017-08-03T16:30:02.458Z,24.10
2017-08-03T16:32:33.915Z,24.00
2017-08-03T16:35:02.629Z,24.00
2017-08-03T16:37:34.132Z,24.00
2017-08-03T16:40:02.657Z,23.90
2017-08-03T16:42:32.510Z,23.90
2017-08-03T16:45:03.911Z,23.90
2017-08-03T16:47:32.512Z,23.80
2017-08-03T16:50:03.731Z,23.80
2017-08-03T16:52:32.444Z,23.80
2017-08-03T16:55:03.979Z,23.70
2017-08-03T16:57:32.431Z,23.70
2017-08-03T17:00:02.858Z,23.70
2017-08-03T17:02:32.496Z,23.50
2017-08-03T17:05:04.125Z,23.40
2017-08-03T17:07:32.587Z,23.50
2017-08-03T17:10:02.420Z,23.30
2017-08-03T17:12:34.280Z,23.20
2017-08-03T17:15:02.685Z,23.10
2017-08-03T17:17:34.075Z,23.10
2017-08-03T17:20:03.442Z,23.10
2017-08-03T17:22:33.352Z,23.10
2017-08-03T17:25:03.179Z,23.10
2017-08-03T17:27:32.989Z,23.10
2017-08-03T17:30:04.321Z,23.10
2017-08-03T17:32:33.712Z,23.00
2017-08-03T17:35:02.126Z,23.00
2017-08-03T17:37:33.976Z,23.00
2017-08-03T17:40:03.520Z,23.00
2017-08-03T17:42:35.538Z,22.90
2017-08-03T17:45:04.279Z,22.80
2017-08-03T17:47:33.121Z,22.70
2017-08-03T17:50:07.411Z,22.60
2017-08-03T17:52:35.799Z,22.50
2017-08-03T17:55:08.551Z,22.50
2017-08-03T18:00:31.974Z,22.60
2017-08-03T18:03:03.327Z,22.50
2017-08-03T18:05:32.928Z,22.30
2017-08-03T18:08:01.356Z,22.20
2017-08-03T18:10:32.656Z,22.20
2017-08-03T18:13:04.556Z,22.10
2017-08-03T18:15:33.250Z,22.10
2017-08-03T18:18:01.716Z,22.00
2017-08-03T18:20:33.801Z,22.00
2017-08-03T18:23:03.124Z,22.00
2017-08-03T18:25:31.549Z,22.00
2017-08-03T18:28:03.110Z,22.00
2017-08-03T18:30:33.454Z,21.90
2017-08-03T18:33:03.032Z,21.80
2017-08-03T18:35:34.690Z,21.80
2017-08-03T18:38:04.788Z,21.70
2017-08-03T18:40:33.185Z,21.70
2017-08-03T18:43:04.715Z,21.70
2017-08-03T18:45:33.138Z,21.70
2017-08-03T18:48:03.115Z,21.60
2017-08-03T18:50:34.734Z,21.70
2017-08-03T18:53:03.165Z,21.50
2017-08-03T18:55:35.062Z,21.50
2017-08-03T18:58:03.487Z,21.40
2017-08-03T19:00:33.183Z,21.40
2017-08-03T19:03:04.628Z,21.30
2017-08-03T19:05:33.044Z,21.20
2017-08-03T19:08:04.570Z,21.20
2017-08-03T19:10:34.034Z,21.20
2017-08-03T19:13:03.814Z,21.10
2017-08-03T19:15:33.127Z,21.10
2017-08-03T19:18:01.551Z,21.10
2017-08-03T19:20:33.322Z,21.10
2017-08-03T19:23:03.843Z,21.10
2017-08-03T19:25:35.275Z,21.10
2017-08-03T19:28:03.736Z,21.00
2017-08-03T19:30:32.288Z,21.00
2017-08-03T19:33:04.654Z,20.80
2017-08-03T19:35:33.650Z,20.70
2017-08-03T19:38:02.174Z,20.70
2017-08-03T19:40:33.950Z,20.60
2017-08-03T19:43:04.498Z,20.60
2017-08-03T19:45:33.819Z,20.50
2017-08-03T19:48:05.595Z,20.50
2017-08-03T19:53:33.720Z,20.40
2017-08-03T19:56:03.916Z,20.30
2017-08-03T19:58:32.349Z,20.20
2017-08-03T20:01:04.301Z,20.10
2017-08-03T20:03:33.906Z,20.00
2017-08-03T20:06:02.815Z,19.90
2017-08-03T20:09:03.038Z,19.90
2017-08-03T20:11:33.744Z,19.80
2017-08-03T20:14:03.846Z,19.70
2017-08-03T20:16:34.167Z,19.60
2017-08-03T20:19:03.720Z,19.60
2017-08-03T20:21:31.956Z,19.60
2017-08-03T20:24:05.999Z,19.70
2017-08-03T20:26:34.422Z,19.60
2017-08-03T20:29:04.564Z,19.60
2017-08-03T20:31:34.002Z,19.50
2017-08-03T20:34:05.443Z,19.50
2017-08-03T20:36:33.871Z,19.60
2017-08-03T20:39:05.884Z,19.50
2017-08-03T20:41:34.349Z,19.50
2017-08-03T20:44:04.000Z,19.40
2017-08-03T20:46:35.486Z,19.40
2017-08-03T20:49:05.929Z,19.40
2017-08-03T20:51:34.359Z,19.30
2017-08-03T20:54:04.304Z,19.20
2017-08-03T20:56:33.751Z,19.20
2017-08-03T20:59:05.399Z,19.10
2017-08-03T21:01:33.844Z,19.10
2017-08-03T21:04:05.574Z,19.00
2017-08-03T21:06:34.035Z,19.00
2017-08-03T21:09:03.053Z,19.10
2017-08-03T21:11:35.276Z,19.10
2017-08-03T21:14:03.687Z,19.00
2017-08-03T21:16:33.730Z,18.90
2017-08-03T21:19:05.283Z,18.90
2017-08-03T21:21:34.739Z,18.80
2017-08-03T21:24:04.389Z,18.80
2017-08-03T21:26:36.044Z,18.80
2017-08-03T21:29:05.419Z,18.70
2017-08-03T21:31:33.856Z,18.60
2017-08-03T21:34:02.292Z,18.70
2017-08-03T21:36:34.164Z,18.60
2017-08-03T21:39:04.900Z,18.60
2017-08-03T21:41:36.052Z,18.60
2017-08-03T21:44:04.516Z,18.60
2017-08-03T21:46:34.174Z,18.60
2017-08-03T21:49:03.876Z,18.50
2017-08-03T21:51:35.555Z,18.50
2017-08-03T21:54:04.017Z,18.50
2017-08-03T21:56:35.606Z,18.40
2017-08-03T21:59:04.998Z,18.40
2017-08-03T22:01:34.682Z,18.30
2017-08-03T22:04:04.416Z,18.20
2017-08-03T22:06:33.844Z,18.20
2017-08-03T22:09:04.670Z,18.10
2017-08-03T22:11:34.672Z,18.10
2017-08-03T22:14:04.261Z,18.10
2017-08-03T22:16:35.735Z,18.10
2017-08-03T22:19:04.157Z,18.10
2017-08-03T22:21:33.720Z,18.00
2017-08-03T22:24:05.538Z,18.10
2017-08-03T22:26:43.423Z,18.10
2017-08-03T22:32:13.548Z,18.10
2017-08-03T22:34:44.095Z,18.10
2017-08-03T22:37:14.147Z,18.10
2017-08-03T22:39:44.620Z,18.10
2017-08-03T22:42:14.124Z,18.10
2017-08-03T22:44:45.570Z,18.10
2017-08-03T22:47:14.257Z,18.10
2017-08-03T22:49:45.894Z,18.20
2017-08-03T22:52:14.318Z,18.20
2017-08-03T22:54:46.198Z,18.20
2017-08-03T22:57:14.703Z,18.20
2017-08-03T22:59:44.156Z,18.20
2017-08-03T23:02:14.694Z,18.10
2017-08-03T23:04:44.011Z,18.10
2017-08-03T23:07:12.467Z,18.10
2017-08-03T23:09:44.562Z,18.20
2017-08-03T23:12:17.038Z,18.10
2017-08-03T23:14:46.870Z,18.10
2017-08-03T23:17:15.329Z,18.00
2017-08-03T23:19:45.025Z,18.00
2017-08-03T23:22:14.446Z,18.10
2017-08-03T23:25:05.954Z,18.10
2017-08-03T23:27:34.361Z,18.20
2017-08-03T23:30:03.640Z,18.20
2017-08-03T23:32:34.206Z,18.10
2017-08-03T23:35:04.270Z,18.10
2017-08-03T23:37:32.714Z,18.00
2017-08-03T23:40:04.299Z,17.80
2017-08-03T23:42:33.914Z,17.80
2017-08-03T23:45:02.346Z,17.80
2017-08-03T23:47:32.614Z,18.00
2017-08-03T23:50:04.831Z,17.90
2017-08-03T23:52:33.267Z,17.90
2017-08-03T23:55:03.667Z,17.90
2017-08-03T23:57:33.183Z,17.90
